Terminal Aerodrome Forecast
Issued by NWS

Home | Current Version | Previous Version | Graphics & Text | Print | Product List | Glossary On
Versions: 1 2 3 4 5 6 7 8 9 10 11 12 13 14 15 16 17 18 19 20
000
FTUS43 KTOP 240400 AAB
TAFFOE
TAF AMD
KFOE 240412Z 2404/2424 09012G21KT 4SM RA BR BKN008
     FM240700 13009KT P6SM -SHRA BKN008
     FM241500 16009KT 5SM RA BR BKN010
     FM241900 19011KT P6SM BKN035
      TEMPO 2421/2424 4SM -TSRA OVC015CB=

USA.gov is the U.S. government's official web portal to all federal, state and local government web resources and services.